Airfield :
LOGIN :

Register | Disclaimer

   EN    FR    IT 

 










Legend :    VFR   Marginal VFR   IFR   Intensive IFR   Very Intensive IFR
Visi :
Ceiling :
>= 8 km
>= 3000ft
5 to 8 km
1000 to 3000 ft
1500m to 5 km
500 to 1000 ft
800 to 1500m
200 to 500 ft
< 800m
< 200 ft
Symbols :   Thunderstorms  Fog  Heavy snow  Heavy precipitations  Wind > 20 kt
SIGMETs :     Misc.  Thunderstorms  Icing  Turbulence  Mountain Waves  Volcanic Ashes







- Airport Elevation : 659 ft
- IATA code : LGG


EBLG - Liège

CURRENT METAR :
  • 191450Z 33007KT 270V010 CAVOK 27/10 Q1017 NOSIG

EXPIRED METARs :
  • 191420Z 31005KT 260V350 CAVOK 26/09 Q1017 NOSIG
  • 191350Z VRB04KT CAVOK 26/10 Q1018 NOSIG
  • 191320Z 23005KT 170V290 CAVOK 27/09 Q1018 NOSIG
  • 191250Z 29004KT 240V010 CAVOK 27/10 Q1018 NOSIG
  • 191220Z VRB02KT CAVOK 26/11 Q1018 NOSIG

TAF TAF EBLG
Valid from the 19 at 12:00 until the 20 at 18:00 UTC


191100Z 1912/2018 31004KT 9999 FEW045
PROB40
TEMPO 2011/2018 3500 SHRA TSRA
No reported NOTAMs for that airfield.



MET'MAP, your aeronautical weather chart ! - Copyright ORBIFLY December 2007 - Disclaimer

ORBIFLY MET'MAP TEAM :

Programming & Development : Alexandra Zaïnal
Concept & Development : Baudouin d'Aumeries
Co-Development & Prog : Marc-Olivier Méhu
Technical & hardware support : Manuel Goepfert

Contact : metmap@orbifly.com




SOURCES & CREDITS :

   NOAA